KOLS

Nogales International Airport

Nogales, Arizona, USA
METAR KOLS 110154Z AUTO 05007KT 10SM CLR 14/00 A3013 RMK AO2 SLP176 T01390000
Observed Flight Rules
Dec-11 @ 01:54 UTC (31 minutes ago) Visual Flight Rules
Wind Visibility Clouds
50° at 7 knots 10 miles
  • Clear skies
Temperatures Readings
Current 14°C / 57°F
Dewpoint 0°C / 32°F
Humidity 39%
Altimeter 30.13" Hg
Pressure 1017.6 hPa
Elevation 1184
METAR KOLS 110154Z AUTO 05007KT 10SM CLR 14/00 A3013 RMK AO2 SLP176 T01390000
Observed Flight Rules
Dec-11 @ 01:54 UTC
(31 minutes ago)
VFR
Wind Visibility
50° at 7 knots 10 miles
Clouds
  • Clear skies
Temperature Dewpoint
14°C / 57°F 0°C / 32°F
Humidity Altimeter Pressure
39% 30.13" Hg 1017.6 hPa